createdAt,value
2022-12-01T00:01:45.042Z,78.97
2022-12-01T00:06:12.973Z,85.17
2022-12-01T00:10:27.037Z,78.67
2022-12-01T00:14:31.969Z,71.60
2022-12-01T00:18:37.164Z,73.77
2022-12-01T00:22:47.013Z,72.57
2022-12-01T00:26:52.127Z,72.03
2022-12-01T00:30:56.989Z,75.77
2022-12-01T00:35:02.620Z,71.40
2022-12-01T00:39:07.619Z,76.00
2022-12-01T00:43:12.576Z,74.50
2022-12-01T00:47:17.608Z,77.60
2022-12-01T00:51:22.473Z,88.60
2022-12-01T00:55:27.511Z,82.50
2022-12-01T00:59:32.344Z,78.73
2022-12-01T01:03:37.297Z,81.50
2022-12-01T01:07:42.269Z,77.63
2022-12-01T01:11:47.254Z,76.17
2022-12-01T01:16:08.121Z,66.40
2022-12-01T01:20:13.503Z,73.93
2022-12-01T01:24:18.502Z,75.00
2022-12-01T01:28:23.394Z,78.30
2022-12-01T01:32:28.412Z,73.10
2022-12-01T01:36:34.545Z,80.40
2022-12-01T01:40:48.433Z,77.73
2022-12-01T01:44:58.753Z,81.57
2022-12-01T01:49:11.792Z,80.83
2022-12-01T01:53:16.785Z,77.13
2022-12-01T01:57:29.260Z,69.60
2022-12-01T02:01:34.239Z,80.63
2022-12-01T02:05:40.185Z,76.57
2022-12-01T02:09:46.115Z,80.07
2022-12-01T02:14:22.580Z,85.90
2022-12-01T02:18:50.975Z,86.43
2022-12-01T02:23:25.417Z,84.63
2022-12-01T02:27:57.886Z,80.23
2022-12-01T02:32:40.190Z,76.77
2022-12-01T02:36:58.044Z,84.10
2022-12-01T02:41:21.452Z,85.30
2022-12-01T02:45:45.622Z,78.40
2022-12-01T02:49:53.225Z,85.07
2022-12-01T02:54:03.711Z,82.43
2022-12-01T02:58:15.376Z,90.60
2022-12-01T03:02:43.895Z,80.40
2022-12-01T03:07:24.782Z,86.33
2022-12-01T03:11:51.477Z,80.63
2022-12-01T03:16:46.982Z,84.00
2022-12-01T03:21:25.691Z,80.13
2022-12-01T03:25:31.843Z,84.60
2022-12-01T03:29:43.873Z,95.07
2022-12-01T03:34:04.883Z,82.10
2022-12-01T03:38:27.939Z,83.80
2022-12-01T03:42:38.570Z,85.67
2022-12-01T03:47:15.005Z,94.13
2022-12-01T03:51:51.528Z,85.63
2022-12-01T03:56:03.850Z,80.27
2022-12-01T04:00:11.468Z,90.07
2022-12-01T04:04:16.568Z,91.07
2022-12-01T04:08:21.926Z,82.97
2022-12-01T04:12:29.496Z,85.90
2022-12-01T04:16:34.498Z,101.23
2022-12-01T04:20:39.471Z,82.27
2022-12-01T04:24:44.894Z,88.83
2022-12-01T04:28:49.746Z,84.77
2022-12-01T04:32:54.669Z,90.50
2022-12-01T04:36:59.591Z,81.50
2022-12-01T04:41:12.054Z,85.73
2022-12-01T04:45:16.985Z,87.47
2022-12-01T04:49:22.414Z,82.50
2022-12-01T04:53:27.320Z,83.37
2022-12-01T04:57:32.208Z,94.93
2022-12-01T05:01:37.139Z,84.77
2022-12-01T05:05:42.278Z,81.00
2022-12-01T05:09:47.430Z,80.13
2022-12-01T05:13:52.564Z,80.30
2022-12-01T05:17:57.467Z,77.37
2022-12-01T05:22:02.388Z,80.93
2022-12-01T05:26:09.467Z,83.40
2022-12-01T05:30:14.514Z,69.37
2022-12-01T05:34:19.385Z,76.87
2022-12-01T05:38:24.384Z,74.33
2022-12-01T05:42:29.242Z,77.33
2022-12-01T05:46:34.096Z,73.93
2022-12-01T05:50:40.081Z,70.20
2022-12-01T05:54:45.053Z,69.10
2022-12-01T05:58:49.930Z,78.23
2022-12-01T06:02:54.802Z,76.50
2022-12-01T06:06:59.686Z,72.00
2022-12-01T06:11:04.679Z,70.73
2022-12-01T06:15:12.433Z,66.23
2022-12-01T06:19:17.392Z,72.77
2022-12-01T06:23:26.303Z,69.03
2022-12-01T06:27:33.862Z,72.87
2022-12-01T06:31:38.896Z,70.27
2022-12-01T06:35:43.894Z,63.90
2022-12-01T06:39:49.238Z,68.93
2022-12-01T06:43:54.793Z,62.30
2022-12-01T06:47:59.657Z,58.33
2022-12-01T06:52:05.273Z,68.13
2022-12-01T06:56:10.249Z,56.60
2022-12-01T07:00:15.988Z,63.67
2022-12-01T07:04:21.325Z,58.63
2022-12-01T07:08:28.460Z,59.43
2022-12-01T07:12:33.536Z,59.43
2022-12-01T07:16:38.705Z,55.33
2022-12-01T07:20:43.711Z,56.73
2022-12-01T07:24:48.655Z,61.97
2022-12-01T07:28:53.527Z,52.10
2022-12-01T07:32:58.589Z,51.67
2022-12-01T07:37:03.574Z,53.87
2022-12-01T07:41:14.821Z,52.60
2022-12-01T07:45:19.769Z,54.30
2022-12-01T07:49:24.851Z,47.60
2022-12-01T07:53:29.852Z,52.63
2022-12-01T07:57:34.749Z,50.57
2022-12-01T08:01:44.251Z,54.80
2022-12-01T08:05:57.687Z,47.47
2022-12-01T08:10:02.728Z,48.23
2022-12-01T08:14:07.758Z,42.77
2022-12-01T08:18:13.631Z,44.10
2022-12-01T08:22:18.586Z,48.70
2022-12-01T08:26:25.607Z,49.30
2022-12-01T08:30:30.673Z,41.10
2022-12-01T08:34:38.501Z,50.23
2022-12-01T08:38:48.769Z,42.43
2022-12-01T08:42:53.692Z,44.73
2022-12-01T08:46:58.618Z,47.40
2022-12-01T08:51:10.454Z,52.03
2022-12-01T08:55:15.440Z,50.17
2022-12-01T08:59:20.337Z,57.17
2022-12-01T09:03:25.396Z,61.50
2022-12-01T09:07:30.412Z,63.97
2022-12-01T09:11:35.588Z,56.27
2022-12-01T09:15:40.440Z,46.43
2022-12-01T09:19:45.424Z,49.63
2022-12-01T09:23:50.843Z,46.30
2022-12-01T09:27:56.213Z,45.87
2022-12-01T09:32:01.284Z,40.03
2022-12-01T09:36:10.390Z,43.17
2022-12-01T09:40:15.874Z,46.67
2022-12-01T09:44:46.011Z,48.33
2022-12-01T09:48:53.190Z,49.50
2022-12-01T09:53:08.184Z,54.23
2022-12-01T09:57:36.103Z,46.00
2022-12-01T10:01:46.938Z,52.10
2022-12-01T10:06:27.122Z,51.23
2022-12-01T10:10:46.469Z,50.60
2022-12-01T10:14:51.424Z,41.17
2022-12-01T10:19:29.532Z,49.10
2022-12-01T10:23:44.940Z,44.37
2022-12-01T10:28:31.394Z,44.27
2022-12-01T10:32:47.771Z,37.87
2022-12-01T10:36:52.925Z,47.83
2022-12-01T10:41:01.202Z,35.77
2022-12-01T10:45:18.894Z,35.10
2022-12-01T10:49:38.433Z,35.37
2022-12-01T10:53:43.389Z,29.23
2022-12-01T10:57:49.101Z,27.00
2022-12-01T11:01:55.338Z,29.90
2022-12-01T11:06:04.708Z,29.73
2022-12-01T11:10:21.910Z,36.83
2022-12-01T11:14:52.861Z,25.40
2022-12-01T11:19:28.677Z,30.83
2022-12-01T11:23:37.895Z,29.47
2022-12-01T11:27:54.229Z,31.57
2022-12-01T11:32:00.790Z,30.97
2022-12-01T11:36:06.391Z,30.70
2022-12-01T11:40:27.090Z,26.10
2022-12-01T11:44:50.832Z,21.73
2022-12-01T11:49:01.234Z,31.90
2022-12-01T11:53:29.714Z,30.97
2022-12-01T11:57:35.298Z,27.87
2022-12-01T12:01:58.955Z,27.03
2022-12-01T12:06:39.603Z,25.63
2022-12-01T12:10:49.724Z,27.43
2022-12-01T12:15:17.270Z,24.90
2022-12-01T12:20:08.073Z,27.27
2022-12-01T12:24:38.384Z,23.70
2022-12-01T12:29:16.345Z,26.27
2022-12-01T12:33:30.264Z,27.23
2022-12-01T12:38:26.572Z,28.30
2022-12-01T12:43:15.419Z,22.40
2022-12-01T12:47:54.958Z,26.23
2022-12-01T12:52:16.867Z,21.83
2022-12-01T12:56:26.291Z,26.27
2022-12-01T13:00:31.435Z,28.90
2022-12-01T13:04:59.877Z,23.73
2022-12-01T13:09:35.525Z,27.40
2022-12-01T13:14:08.164Z,26.17
2022-12-01T13:18:46.879Z,32.50
2022-12-01T13:22:53.577Z,27.47
2022-12-01T13:27:05.261Z,29.43
2022-12-01T13:31:16.163Z,28.50
2022-12-01T13:35:37.773Z,26.63
2022-12-01T13:39:44.719Z,34.17
2022-12-01T13:44:04.542Z,30.63
2022-12-01T13:48:37.357Z,28.33
2022-12-01T13:52:50.542Z,30.03
2022-12-01T13:57:14.073Z,31.23
2022-12-01T14:01:22.521Z,35.63
2022-12-01T14:05:39.628Z,29.13
2022-12-01T14:09:44.532Z,34.97
2022-12-01T14:14:25.556Z,31.43
2022-12-01T14:18:41.277Z,41.37
2022-12-01T14:22:50.372Z,44.00
2022-12-01T14:26:56.017Z,34.20
2022-12-01T14:31:04.132Z,41.53
2022-12-01T14:35:13.805Z,44.73
2022-12-01T14:39:27.417Z,44.53
2022-12-01T14:43:52.008Z,38.17
2022-12-01T14:48:09.511Z,39.00
2022-12-01T14:52:29.265Z,47.97
2022-12-01T14:56:36.081Z,43.80
2022-12-01T15:01:13.093Z,51.23
2022-12-01T15:05:21.899Z,59.87
2022-12-01T15:09:35.187Z,57.33
2022-12-01T15:13:53.389Z,53.77
2022-12-01T15:18:01.712Z,56.40
2022-12-01T15:22:17.513Z,58.20
2022-12-01T15:26:25.955Z,66.63
2022-12-01T15:30:31.607Z,71.50
2022-12-01T15:34:47.147Z,52.40
2022-12-01T15:38:53.598Z,64.43
2022-12-01T15:43:14.733Z,78.50
2022-12-01T15:47:56.774Z,60.40
2022-12-01T15:52:10.702Z,93.85
2022-12-01T15:56:16.081Z,67.50
2022-12-01T16:00:23.105Z,89.00
2022-12-01T16:04:35.411Z,74.67
2022-12-01T16:08:40.591Z,66.43
2022-12-01T16:12:45.574Z,72.57
2022-12-01T16:16:51.912Z,81.72
2022-12-01T16:21:05.750Z,68.77
2022-12-01T16:25:29.194Z,62.80
2022-12-01T16:30:03.345Z,76.47
2022-12-01T16:34:44.030Z,64.10
2022-12-01T16:38:42.762Z,52.77
2022-12-01T16:42:49.881Z,60.87
2022-12-01T16:46:54.767Z,62.07
2022-12-01T16:51:05.363Z,65.20
2022-12-01T16:55:33.813Z,54.63
2022-12-01T16:59:38.686Z,57.17
2022-12-01T17:03:43.591Z,58.27
2022-12-01T17:07:48.569Z,55.20
2022-12-01T17:11:54.712Z,53.50
2022-12-01T17:16:06.195Z,54.43
2022-12-01T17:20:11.833Z,68.37
2022-12-01T17:24:19.199Z,73.20
2022-12-01T17:28:24.773Z,85.90
2022-12-01T17:32:29.766Z,62.33
2022-12-01T17:36:34.640Z,65.73
2022-12-01T17:40:39.474Z,64.13
2022-12-01T17:44:44.413Z,73.77
2022-12-01T17:48:49.412Z,53.63
2022-12-01T17:52:54.453Z,61.80
2022-12-01T17:56:59.592Z,62.43
2022-12-01T18:01:05.804Z,64.63
2022-12-01T18:05:11.315Z,54.80
2022-12-01T18:09:16.330Z,58.87
2022-12-01T18:13:22.565Z,67.83
2022-12-01T18:17:27.572Z,72.83
2022-12-01T18:21:32.415Z,66.57
2022-12-01T18:25:39.159Z,80.00
2022-12-01T18:29:44.000Z,64.17
2022-12-01T18:33:48.879Z,64.83
2022-12-01T18:37:53.933Z,63.63
2022-12-01T18:41:58.973Z,59.80
2022-12-01T18:46:05.273Z,61.17
2022-12-01T18:50:10.513Z,54.70
2022-12-01T18:54:16.154Z,59.13
2022-12-01T18:58:21.143Z,53.70
2022-12-01T19:02:26.470Z,55.07
2022-12-01T19:06:34.461Z,47.03
2022-12-01T19:10:39.475Z,50.00
2022-12-01T19:14:44.389Z,53.77
2022-12-01T19:18:49.770Z,53.30
2022-12-01T19:22:54.664Z,54.40
2022-12-01T19:26:59.564Z,51.17
2022-12-01T19:31:11.291Z,51.60
2022-12-01T19:35:16.442Z,54.50
2022-12-01T19:39:21.447Z,53.53
2022-12-01T19:43:26.358Z,58.63
2022-12-01T19:47:35.482Z,54.27
2022-12-01T19:51:40.845Z,42.43
2022-12-01T19:55:45.799Z,54.17
2022-12-01T19:59:50.721Z,59.03
2022-12-01T20:03:55.897Z,52.77
2022-12-01T20:08:02.736Z,52.40
2022-12-01T20:12:07.769Z,48.40
2022-12-01T20:16:16.968Z,52.40
2022-12-01T20:20:21.943Z,52.10
2022-12-01T20:24:26.825Z,49.30
2022-12-01T20:28:33.683Z,50.33
2022-12-01T20:32:38.592Z,54.63
2022-12-01T20:36:43.912Z,54.93
2022-12-01T20:40:51.729Z,56.27
2022-12-01T20:44:56.816Z,52.57
2022-12-01T20:49:01.718Z,59.43
2022-12-01T20:53:06.693Z,55.07
2022-12-01T20:57:11.568Z,53.80
2022-12-01T21:01:17.631Z,52.20
2022-12-01T21:05:26.973Z,53.23
2022-12-01T21:09:31.850Z,57.33
2022-12-01T21:13:42.041Z,59.50
2022-12-01T21:17:53.959Z,63.80
2022-12-01T21:21:59.220Z,56.87
2022-12-01T21:26:15.428Z,63.27
2022-12-01T21:30:26.312Z,57.27
2022-12-01T21:34:35.610Z,67.30
2022-12-01T21:38:43.290Z,69.87
2022-12-01T21:42:48.584Z,77.87
2022-12-01T21:46:58.055Z,78.43
2022-12-01T21:51:25.321Z,71.40
2022-12-01T21:55:35.837Z,67.87
2022-12-01T21:59:40.691Z,67.80
2022-12-01T22:03:46.783Z,64.87
2022-12-01T22:08:00.266Z,69.37
2022-12-01T22:12:26.136Z,62.67
2022-12-01T22:16:35.244Z,55.17
2022-12-01T22:20:40.098Z,56.13
2022-12-01T22:24:51.568Z,49.33
2022-12-01T22:28:59.232Z,54.63
2022-12-01T22:33:14.132Z,54.43
2022-12-01T22:37:24.175Z,52.47
2022-12-01T22:41:29.094Z,45.43
2022-12-01T22:45:33.918Z,44.73
2022-12-01T22:49:38.769Z,49.43
2022-12-01T22:53:45.870Z,42.10
2022-12-01T22:57:50.824Z,45.70
2022-12-01T23:02:02.767Z,47.50
2022-12-01T23:06:49.411Z,44.93
2022-12-01T23:10:54.261Z,42.60
2022-12-01T23:15:14.790Z,47.47
2022-12-01T23:19:19.680Z,42.33
2022-12-01T23:23:30.262Z,41.60
2022-12-01T23:27:35.184Z,43.40
2022-12-01T23:31:40.266Z,40.53
2022-12-01T23:36:15.992Z,41.03
2022-12-01T23:40:34.140Z,41.93
2022-12-01T23:44:49.612Z,47.07
2022-12-01T23:49:03.360Z,45.43
2022-12-01T23:53:30.983Z,39.60
2022-12-01T23:57:37.296Z,45.90
